createdAt,value
2023-05-19T00:00:10.231Z,991.3
2023-05-19T00:06:15.439Z,991.3
2023-05-19T00:10:17.823Z,991.3
2023-05-19T00:12:18.921Z,991.2
2023-05-19T00:16:21.813Z,991.2
2023-05-19T00:18:23.231Z,991.3
2023-05-19T00:22:25.807Z,991.2
2023-05-19T00:26:28.969Z,991.2
2023-05-19T00:28:30.692Z,991.2
2023-05-19T00:32:34.310Z,991.1
2023-05-19T00:34:35.563Z,991.1
2023-05-19T00:38:38.554Z,991.2
2023-05-19T00:42:41.491Z,991.2
2023-05-19T00:44:43.458Z,991.2
2023-05-19T00:48:47.020Z,991.2
2023-05-19T00:52:49.891Z,991.2
2023-05-19T00:54:51.244Z,991.2
2023-05-19T00:58:54.351Z,991.2
2023-05-19T01:00:55.624Z,991.2
2023-05-19T01:04:58.461Z,991.1
2023-05-19T01:09:01.345Z,991.1
2023-05-19T01:11:03.115Z,991
2023-05-19T01:15:05.456Z,991.1
2023-05-19T01:17:06.818Z,991.1
2023-05-19T01:21:10.164Z,991.1
2023-05-19T01:25:13.116Z,991.1
2023-05-19T01:27:14.758Z,991.1
2023-05-19T01:31:17.723Z,991.1
2023-05-19T01:35:21.177Z,991.2
2023-05-19T01:37:22.741Z,991.1
2023-05-19T01:41:24.992Z,991.1
2023-05-19T01:43:26.553Z,991
2023-05-19T01:47:29.508Z,991.1
2023-05-19T01:51:33.023Z,991
2023-05-19T01:53:34.912Z,991.1
2023-05-19T01:57:37.361Z,991.1
2023-05-19T01:59:38.602Z,991
2023-05-19T02:03:41.096Z,991
2023-05-19T02:07:44.170Z,991.1
2023-05-19T02:09:45.340Z,991
2023-05-19T02:13:49.019Z,991
2023-05-19T02:17:52.217Z,991
2023-05-19T02:19:53.106Z,991.1
2023-05-19T02:23:56.917Z,991.1
2023-05-19T02:25:57.960Z,991.1
2023-05-19T02:27:59.847Z,991.1
2023-05-19T02:30:00.927Z,991.2
2023-05-19T02:34:03.854Z,991
2023-05-19T02:36:05.162Z,991.1
2023-05-19T02:38:06.305Z,991
2023-05-19T02:40:08.066Z,991
2023-05-19T02:42:09.301Z,991
2023-05-19T02:46:12.839Z,991.1
2023-05-19T02:50:16.068Z,991
2023-05-19T02:52:17.959Z,991
2023-05-19T02:56:20.384Z,990.9
2023-05-19T03:00:23.387Z,991
2023-05-19T03:02:24.668Z,990.9
2023-05-19T03:06:27.573Z,990.9
2023-05-19T03:08:40.096Z,991
2023-05-19T03:10:31.210Z,990.9
2023-05-19T03:12:32.935Z,990.9
2023-05-19T03:16:36.073Z,991
2023-05-19T03:18:37.094Z,990.9
2023-05-19T03:23:24.489Z,991
2023-05-19T03:25:25.756Z,990.9
2023-05-19T03:27:27.524Z,991
2023-05-19T03:29:29.256Z,990.9
2023-05-19T03:33:32.750Z,990.9
2023-05-19T03:35:34.041Z,990.9
2023-05-19T03:39:37.123Z,990.9
2023-05-19T03:43:40.238Z,990.8
2023-05-19T03:45:42.234Z,990.9
2023-05-19T03:49:44.958Z,990.9
2023-05-19T03:53:47.956Z,990.8
2023-05-19T03:55:49.297Z,990.9
2023-05-19T03:59:52.649Z,991
2023-05-19T04:01:54.003Z,990.9
2023-05-19T04:05:57.310Z,991.1
2023-05-19T04:10:00.501Z,991
2023-05-19T04:12:01.962Z,991
2023-05-19T04:16:04.882Z,991
2023-05-19T04:18:05.990Z,991
2023-05-19T04:22:08.811Z,991
2023-05-19T04:26:11.619Z,991
2023-05-19T04:28:13.006Z,991
2023-05-19T04:32:15.447Z,991.1
2023-05-19T04:36:19.019Z,991
2023-05-19T04:38:30.505Z,991.1
2023-05-19T04:42:23.433Z,991.1
2023-05-19T04:44:24.829Z,991.1
2023-05-19T04:48:27.135Z,991
2023-05-19T04:52:29.684Z,991
2023-05-19T04:54:31.192Z,991.1
2023-05-19T04:58:34.166Z,991
2023-05-19T05:00:35.739Z,991.1
2023-05-19T05:04:38.648Z,991
2023-05-19T05:08:41.418Z,991.1
2023-05-19T05:10:42.832Z,991.2
2023-05-19T05:14:45.440Z,991.1
2023-05-19T05:18:48.325Z,991.1
2023-05-19T05:20:49.699Z,991.1
2023-05-19T05:24:51.919Z,991
2023-05-19T05:26:53.645Z,991
2023-05-19T05:28:54.892Z,991
2023-05-19T05:30:56.569Z,990.9
2023-05-19T05:34:59.428Z,991
2023-05-19T05:37:00.917Z,990.9
2023-05-19T05:39:02.385Z,991
2023-05-19T05:41:03.791Z,990.8
2023-05-19T05:43:05.235Z,990.9
2023-05-19T05:47:08.380Z,990.9
2023-05-19T05:49:09.475Z,990.9
2023-05-19T05:51:10.740Z,990.9
2023-05-19T05:53:12.168Z,990.9
2023-05-19T05:57:16.007Z,990.9
2023-05-19T05:59:17.259Z,990.9
2023-05-19T06:03:21.368Z,990.7
2023-05-19T06:07:23.949Z,990.7
2023-05-19T06:09:25.069Z,990.7
2023-05-19T06:11:26.475Z,990.6
2023-05-19T06:13:27.437Z,990.6
2023-05-19T06:17:29.565Z,990.6
2023-05-19T06:19:30.689Z,990.6
2023-05-19T06:23:32.680Z,990.6
2023-05-19T06:25:34.171Z,990.6
2023-05-19T06:29:36.917Z,990.6
2023-05-19T06:33:39.785Z,990.6
2023-05-19T06:35:41.347Z,990.6
2023-05-19T06:39:43.207Z,990.5
2023-05-19T06:41:45.000Z,990.5
2023-05-19T06:45:48.405Z,990.5
2023-05-19T06:49:50.489Z,990.5
2023-05-19T06:51:52.053Z,990.6
2023-05-19T06:55:59.657Z,990.5
2023-05-19T06:59:56.727Z,990.5
2023-05-19T07:01:58.213Z,990.6
2023-05-19T07:06:00.655Z,990.6
2023-05-19T07:08:02.630Z,990.6
2023-05-19T07:10:03.992Z,990.5
2023-05-19T07:16:07.299Z,990.5
2023-05-19T07:18:09.036Z,990.4
2023-05-19T07:22:12.632Z,990.5
2023-05-19T07:24:13.617Z,990.5
2023-05-19T07:28:16.758Z,990.5
2023-05-19T07:32:20.082Z,990.5
2023-05-19T07:34:21.293Z,990.5
2023-05-19T07:38:23.737Z,990.5
2023-05-19T07:42:26.648Z,990.3
2023-05-19T07:44:28.037Z,990.5
2023-05-19T07:48:30.095Z,990.3
2023-05-19T07:50:31.887Z,990.3
2023-05-19T07:52:32.625Z,990.3
2023-05-19T07:54:34.251Z,990.3
2023-05-19T07:58:37.702Z,990.2
2023-05-19T08:00:38.670Z,990.2
2023-05-19T08:02:40.188Z,990.2
2023-05-19T08:04:42.414Z,990.1
2023-05-19T08:06:43.614Z,990.1
2023-05-19T08:10:47.809Z,990.1
2023-05-19T08:14:50.979Z,990.1
2023-05-19T08:16:52.290Z,990.1
2023-05-19T08:20:56.110Z,990.2
2023-05-19T08:25:07.931Z,990.2
2023-05-19T08:27:00.683Z,990.1
2023-05-19T08:31:03.752Z,990.1
2023-05-19T08:33:04.918Z,990.1
2023-05-19T08:35:06.162Z,990.1
2023-05-19T08:37:07.442Z,990
2023-05-19T08:41:10.317Z,989.9
2023-05-19T08:43:11.947Z,990
2023-05-19T08:45:13.633Z,990
2023-05-19T08:47:14.568Z,990
2023-05-19T08:49:15.816Z,989.9
2023-05-19T08:53:32.285Z,989.8
2023-05-19T08:57:22.351Z,989.8
2023-05-19T08:59:23.307Z,989.8
2023-05-19T09:03:25.925Z,989.8
2023-05-19T09:07:29.209Z,989.8
2023-05-19T09:09:30.674Z,989.8
2023-05-19T09:13:33.725Z,989.8
2023-05-19T09:15:34.936Z,989.9
2023-05-19T09:17:35.982Z,989.7
2023-05-19T09:19:37.388Z,989.8
2023-05-19T09:23:39.565Z,989.8
2023-05-19T09:25:40.631Z,989.8
2023-05-19T09:29:43.810Z,989.8
2023-05-19T09:31:45.017Z,989.8
2023-05-19T09:35:48.757Z,989.8
2023-05-19T09:37:50.498Z,989.8
2023-05-19T09:39:51.453Z,989.8
2023-05-19T09:41:53.204Z,989.8
2023-05-19T09:45:55.454Z,989.9
2023-05-19T09:47:56.555Z,989.9
2023-05-19T09:51:58.861Z,989.8
2023-05-19T09:56:01.904Z,989.9
2023-05-19T09:58:02.943Z,989.9
2023-05-19T10:02:06.072Z,989.9
2023-05-19T10:06:09.183Z,989.8
2023-05-19T10:06:52.884Z,989.8
2023-05-19T10:08:54.078Z,989.8
2023-05-19T10:12:56.149Z,989.7
2023-05-19T10:16:58.432Z,989.7
2023-05-19T10:18:59.594Z,989.7
2023-05-19T10:23:02.167Z,989.6
2023-05-19T10:25:03.185Z,989.6
2023-05-19T10:29:05.670Z,989.7
2023-05-19T10:33:08.698Z,989.7
2023-05-19T10:35:10.131Z,989.6
2023-05-19T10:39:13.062Z,989.6
2023-05-19T10:43:15.689Z,989.6
2023-05-19T10:45:17.487Z,989.6
2023-05-19T10:49:20.108Z,989.6
2023-05-19T10:51:21.213Z,989.6
2023-05-19T10:53:22.930Z,989.6
2023-05-19T10:55:23.667Z,989.6
2023-05-19T10:59:27.822Z,989.5
2023-05-19T11:01:27.742Z,989.5
2023-05-19T11:03:29.105Z,989.5
2023-05-19T11:05:30.055Z,989.5
2023-05-19T11:07:31.825Z,989.5
2023-05-19T11:11:34.881Z,989.6
2023-05-19T11:15:36.558Z,989.6
2023-05-19T11:17:38.249Z,989.6
2023-05-19T11:21:41.448Z,989.6
2023-05-19T11:27:46.522Z,989.5
2023-05-19T11:31:49.661Z,989.4
2023-05-19T11:33:51.031Z,989.5
2023-05-19T11:35:51.928Z,989.5
2023-05-19T11:37:54.235Z,989.5
2023-05-19T11:41:56.955Z,989.4
2023-05-19T11:43:58.551Z,989.4
2023-05-19T11:48:03.223Z,989.5
2023-05-19T11:50:12.146Z,989.4
2023-05-19T11:54:06.422Z,989.4
2023-05-19T11:56:07.538Z,989.3
2023-05-19T11:58:09.095Z,989.2
2023-05-19T12:00:10.032Z,989.3
2023-05-19T12:04:13.300Z,989.2
2023-05-19T12:06:14.347Z,989.2
2023-05-19T12:10:17.396Z,989.2
2023-05-19T12:14:20.047Z,989.2
2023-05-19T12:16:21.484Z,989.1
2023-05-19T12:20:23.816Z,989.1
2023-05-19T12:24:27.793Z,989.1
2023-05-19T12:26:29.283Z,989.2
2023-05-19T12:30:32.959Z,989.1
2023-05-19T12:32:33.542Z,989.1
2023-05-19T12:36:35.870Z,989.1
2023-05-19T12:40:38.759Z,989
2023-05-19T12:42:40.279Z,989.1
2023-05-19T12:46:44.112Z,989.1
2023-05-19T12:48:45.188Z,989.1
2023-05-19T12:52:48.281Z,989.1
2023-05-19T12:56:50.841Z,989.1
2023-05-19T12:58:52.640Z,989.1
2023-05-19T13:02:56.110Z,989.1
2023-05-19T13:06:58.396Z,989.1
2023-05-19T13:08:59.647Z,989
2023-05-19T13:13:02.334Z,989
2023-05-19T13:15:03.165Z,989
2023-05-19T13:19:06.379Z,988.9
2023-05-19T13:23:08.117Z,988.9
2023-05-19T13:25:09.182Z,988.9
2023-05-19T13:29:11.355Z,988.7
2023-05-19T13:31:12.954Z,988.7
2023-05-19T13:35:16.041Z,988.7
2023-05-19T13:39:18.207Z,988.7
2023-05-19T13:41:19.146Z,988.6
2023-05-19T13:45:21.872Z,988.7
2023-05-19T13:49:24.051Z,988.6
2023-05-19T13:51:25.889Z,988.6
2023-05-19T13:55:28.467Z,988.6
2023-05-19T13:57:30.038Z,988.6
2023-05-19T13:59:30.991Z,988.5
2023-05-19T14:01:31.883Z,988.5
2023-05-19T14:05:34.506Z,988.4
2023-05-19T14:07:36.086Z,988.2
2023-05-19T14:09:38.179Z,988.3
2023-05-19T14:11:39.744Z,988.3
2023-05-19T14:13:42.705Z,988.4
2023-05-19T14:17:43.329Z,988.3
2023-05-19T14:23:46.436Z,988.2
2023-05-19T14:27:48.961Z,988.2
2023-05-19T14:29:50.278Z,988.2
2023-05-19T14:33:52.131Z,988.2
2023-05-19T14:37:54.030Z,988.2
2023-05-19T14:39:55.729Z,988.1
2023-05-19T14:43:58.362Z,988.2
2023-05-19T14:48:00.306Z,988.1
2023-05-19T14:50:01.496Z,988.2
2023-05-19T14:54:05.012Z,988.1
2023-05-19T14:56:06.567Z,988.2
2023-05-19T15:00:09.823Z,988.1
2023-05-19T15:04:12.732Z,988
2023-05-19T15:06:13.817Z,988
2023-05-19T15:10:15.883Z,987.9
2023-05-19T15:12:17.275Z,987.9
2023-05-19T15:16:19.725Z,987.8
2023-05-19T15:20:22.087Z,988
2023-05-19T15:22:23.583Z,987.9
2023-05-19T15:26:27.595Z,987.8
2023-05-19T15:30:29.010Z,987.8
2023-05-19T15:32:30.482Z,987.8
2023-05-19T15:36:32.948Z,987.8
2023-05-19T15:38:34.581Z,987.7
2023-05-19T15:40:36.610Z,987.7
2023-05-19T15:42:37.628Z,987.7
2023-05-19T15:46:41.012Z,987.7
2023-05-19T15:48:42.685Z,987.7
2023-05-19T15:52:45.283Z,987.7
2023-05-19T15:54:46.965Z,987.6
2023-05-19T15:58:49.758Z,987.6
2023-05-19T16:02:52.449Z,987.6
2023-05-19T16:04:53.193Z,987.6
2023-05-19T16:08:56.010Z,987.5
2023-05-19T16:14:59.642Z,987.5
2023-05-19T16:19:02.846Z,987.4
2023-05-19T16:21:03.833Z,987.4
2023-05-19T16:25:06.644Z,987.4
2023-05-19T16:29:10.333Z,987.3
2023-05-19T16:31:12.014Z,987.3
2023-05-19T16:35:15.979Z,987.3
2023-05-19T16:37:17.001Z,987.3
2023-05-19T16:41:20.569Z,987.3
2023-05-19T16:43:22.137Z,987.3
2023-05-19T16:45:23.643Z,987.3
2023-05-19T16:47:25.296Z,987.3
2023-05-19T16:51:27.632Z,987.3
2023-05-19T16:56:13.663Z,987.2
2023-05-19T16:58:14.728Z,987.2
2023-05-19T17:02:17.007Z,987.1
2023-05-19T17:06:18.911Z,987
2023-05-19T17:08:20.564Z,987
2023-05-19T17:12:23.482Z,987
2023-05-19T17:14:24.641Z,987.1
2023-05-19T17:18:27.649Z,987.1
2023-05-19T17:22:31.124Z,987
2023-05-19T17:24:32.288Z,987.1
2023-05-19T17:28:35.775Z,987.1
2023-05-19T17:30:36.848Z,987.1
2023-05-19T17:34:39.017Z,987.2
2023-05-19T17:38:41.874Z,987
2023-05-19T17:40:42.911Z,987.1
2023-05-19T17:44:45.876Z,987.1
2023-05-19T17:50:49.314Z,987.1
2023-05-19T17:54:52.187Z,987.2
2023-05-19T17:56:53.237Z,987.1
2023-05-19T18:00:55.035Z,987.2
2023-05-19T18:02:56.264Z,987.2
2023-05-19T18:06:59.435Z,987.2
2023-05-19T18:09:01.131Z,987.2
2023-05-19T18:11:02.724Z,987.2
2023-05-19T18:13:03.680Z,987.2
2023-05-19T18:17:06.947Z,987.2
2023-05-19T18:21:10.357Z,987.2
2023-05-19T18:23:11.067Z,987.2
2023-05-19T18:27:13.477Z,987.1
2023-05-19T18:29:14.608Z,987.1
2023-05-19T18:33:17.779Z,987.2
2023-05-19T18:37:20.538Z,987.1
2023-05-19T18:39:21.477Z,987.2
2023-05-19T18:43:24.168Z,987.1
2023-05-19T18:45:25.710Z,987.2
2023-05-19T18:49:28.424Z,987.1
2023-05-19T18:53:31.730Z,987.2
2023-05-19T18:55:33.108Z,987.2
2023-05-19T18:59:36.183Z,987.1
2023-05-19T19:03:39.034Z,987.2
2023-05-19T19:05:40.473Z,987.2
2023-05-19T19:09:43.933Z,987.3
2023-05-19T19:11:45.521Z,987.2
2023-05-19T19:15:48.716Z,987.3
2023-05-19T19:19:51.188Z,987.3
2023-05-19T19:21:52.332Z,987.3
2023-05-19T19:25:55.175Z,987.4
2023-05-19T19:27:56.145Z,987.4
2023-05-19T19:31:58.951Z,987.5
2023-05-19T19:36:01.416Z,987.5
2023-05-19T19:38:02.633Z,987.6
2023-05-19T19:42:05.573Z,987.5
2023-05-19T19:48:09.660Z,987.6
2023-05-19T19:52:12.056Z,987.5
2023-05-19T19:54:13.822Z,987.6
2023-05-19T19:58:16.917Z,987.6
2023-05-19T20:02:19.831Z,987.6
2023-05-19T20:04:20.848Z,987.7
2023-05-19T20:08:23.582Z,987.7
2023-05-19T20:10:24.595Z,987.7
2023-05-19T20:14:26.967Z,987.6
2023-05-19T20:18:30.306Z,987.6
2023-05-19T20:20:31.446Z,987.7
2023-05-19T20:24:34.187Z,987.6
2023-05-19T20:26:35.448Z,987.6
2023-05-19T20:30:38.148Z,987.5
2023-05-19T20:34:41.889Z,987.7
2023-05-19T20:36:42.719Z,987.7
2023-05-19T20:40:45.450Z,987.6
2023-05-19T20:44:49.000Z,987.6
2023-05-19T20:46:50.097Z,987.6
2023-05-19T20:50:53.061Z,987.6
2023-05-19T20:52:54.384Z,987.7
2023-05-19T20:56:56.880Z,987.7
2023-05-19T21:00:59.399Z,987.7
2023-05-19T21:03:00.742Z,987.7
2023-05-19T21:07:03.559Z,987.6
2023-05-19T21:09:04.585Z,987.7
2023-05-19T21:13:07.636Z,987.7
2023-05-19T21:17:09.872Z,987.7
2023-05-19T21:19:11.671Z,987.7
2023-05-19T21:23:14.688Z,987.8
2023-05-19T21:25:16.504Z,987.7
2023-05-19T21:29:19.886Z,987.7
2023-05-19T21:33:22.361Z,987.6
2023-05-19T21:35:23.726Z,987.6
2023-05-19T21:39:26.294Z,987.6
2023-05-19T21:43:29.138Z,987.6
2023-05-19T21:45:30.630Z,987.7
2023-05-19T21:49:33.806Z,987.7
2023-05-19T21:51:35.170Z,987.6
2023-05-19T21:55:37.194Z,987.7
2023-05-19T21:59:48.998Z,987.7
2023-05-19T22:01:41.284Z,987.6
2023-05-19T22:05:44.233Z,987.6
2023-05-19T22:09:48.877Z,987.7
2023-05-19T22:11:48.772Z,987.6
2023-05-19T22:15:51.958Z,987.7
2023-05-19T22:17:53.427Z,987.7
2023-05-19T22:19:55.266Z,987.8
2023-05-19T22:22:12.900Z,987.7
2023-05-19T22:25:59.231Z,987.7
2023-05-19T22:28:00.735Z,987.7
2023-05-19T22:32:03.083Z,987.7
2023-05-19T22:34:04.331Z,987.7
2023-05-19T22:38:10.254Z,987.5
2023-05-19T22:40:09.878Z,987.6
2023-05-19T22:42:11.049Z,987.6
2023-05-19T22:44:12.795Z,987.6
2023-05-19T22:48:14.684Z,987.6
2023-05-19T22:50:16.323Z,987.7
2023-05-19T22:54:19.623Z,987.7
2023-05-19T22:58:22.461Z,987.6
2023-05-19T23:00:24.375Z,987.7
2023-05-19T23:04:27.444Z,987.7
2023-05-19T23:08:29.804Z,987.6
2023-05-19T23:10:31.592Z,987.6
2023-05-19T23:14:35.104Z,987.6
2023-05-19T23:16:36.316Z,987.5
2023-05-19T23:20:38.530Z,987.6
2023-05-19T23:24:41.308Z,987.5
2023-05-19T23:26:42.981Z,987.6
2023-05-19T23:30:45.784Z,987.5
2023-05-19T23:32:47.368Z,987.5
2023-05-19T23:36:50.249Z,987.5
2023-05-19T23:41:36.709Z,987.4
2023-05-19T23:45:39.810Z,987.4
2023-05-19T23:47:40.802Z,987.5
2023-05-19T23:51:44.010Z,987.4
2023-05-19T23:53:44.897Z,987.4
2023-05-19T23:57:48.360Z,987.4
